Time;durP1;ratioP1;P1;durP2;ratioP2;P2;SDS_P1;SDS_P2;PMS_P1;PMS_P2;Temp;Humidity;BMP_temperature;BMP_pressure;BME280_temperature;BME280_humidity;BME280_pressure;Samples;Min_cycle;Max_cycle;Signal;HPM_P1;HPM_P2
2021/12/10 00:02:15;;;;;;;10.83;6.33;;;;;4.30;99317.00;;;;4992945;28;20253;-75
2021/12/10 00:05:02;;;;;;;9.67;5.73;;;;;4.30;99319.00;;;;4982257;28;20250;-74
2021/12/10 00:07:49;;;;;;;11.83;6.57;;;;;4.20;99296.00;;;;5000821;28;20232;-74
2021/12/10 00:10:43;;;;;;;14.90;6.93;;;;;4.20;99298.00;;;;4993064;28;20235;-74
2021/12/10 00:13:31;;;;;;;11.03;6.17;;;;;4.20;99293.00;;;;5016355;28;20261;-75
2021/12/10 00:16:19;;;;;;;13.60;5.93;;;;;4.00;99288.00;;;;5021323;28;20244;-75
2021/12/10 00:19:17;;;;;;;13.53;6.77;;;;;4.00;99279.00;;;;5012910;28;20258;-76
2021/12/10 00:22:09;;;;;;;15.27;6.30;;;;;4.10;99277.00;;;;4996118;28;20859;-75
2021/12/10 00:24:56;;;;;;;12.10;6.30;;;;;4.00;99276.00;;;;4996461;28;20227;-75
2021/12/10 00:27:43;;;;;;;10.63;6.30;;;;;3.90;99271.00;;;;4999927;28;20241;-75
2021/12/10 00:30:43;;;;;;;11.00;6.13;;;;;4.00;99262.00;;;;4997734;28;20235;-74
2021/12/10 00:33:34;;;;;;;11.40;6.30;;;;;3.90;99249.00;;;;4998929;28;20226;-74
2021/12/10 00:36:21;;;;;;;9.77;5.93;;;;;4.00;99238.00;;;;5001084;28;20350;-75
2021/12/10 00:39:13;;;;;;;11.40;6.17;;;;;4.00;99247.00;;;;5005762;28;20233;-75
2021/12/10 00:42:05;;;;;;;11.77;6.13;;;;;4.00;99247.00;;;;4998431;28;20857;-74
2021/12/10 00:44:53;;;;;;;9.10;5.53;;;;;3.90;99236.00;;;;5010414;28;20235;-73
2021/12/10 00:47:42;;;;;;;10.53;6.40;;;;;4.00;99232.00;;;;4987717;28;20362;-75
2021/12/10 00:50:33;;;;;;;9.33;6.17;;;;;4.00;99226.00;;;;5015144;28;20238;-74
2021/12/10 00:53:19;;;;;;;9.70;5.83;;;;;3.90;99222.00;;;;5005671;28;20316;-74
2021/12/10 00:56:08;;;;;;;11.57;6.10;;;;;3.80;99221.00;;;;5011995;28;20242;-73
2021/12/10 00:58:54;;;;;;;10.30;5.80;;;;;3.70;99221.00;;;;4983154;28;20298;-74
2021/12/10 01:01:44;;;;;;;10.07;6.20;;;;;3.80;99211.00;;;;4984025;28;20856;-73
2021/12/10 01:04:35;;;;;;;10.37;5.80;;;;;3.80;99217.00;;;;5009453;28;20611;-74
2021/12/10 01:07:26;;;;;;;10.23;6.03;;;;;3.70;99219.00;;;;5012907;28;20258;-73
2021/12/10 01:10:20;;;;;;;13.97;6.13;;;;;3.60;99208.00;;;;5000523;28;20338;-74
2021/12/10 01:13:12;;;;;;;12.30;6.23;;;;;3.70;99206.00;;;;5006261;28;20235;-74
2021/12/10 01:23:41;;;;;;;11.70;6.13;;;;;3.60;99209.00;;;;5014593;28;20389;-74
2021/12/10 01:25:36;;;;;;;11.37;5.60;;;;;3.30;99185.00;;;;4993394;28;20240;-73
2021/12/10 01:28:23;;;;;;;9.13;5.40;;;;;3.30;99181.00;;;;5020111;28;20308;-74
2021/12/10 01:31:10;;;;;;;9.80;5.90;;;;;3.30;99178.00;;;;4987551;28;20234;-75
2021/12/10 01:33:57;;;;;;;7.50;4.90;;;;;3.30;99164.00;;;;5001649;28;20234;-75
2021/12/10 01:36:43;;;;;;;16.00;6.43;;;;;3.40;99166.00;;;;4980696;28;20251;-74
2021/12/10 01:39:35;;;;;;;9.60;5.37;;;;;3.40;99171.00;;;;5009448;28;20235;-75
2021/12/10 01:42:34;;;;;;;8.67;5.80;;;;;3.40;99161.00;;;;4986807;28;20282;-75
2021/12/10 01:45:23;;;;;;;8.70;5.70;;;;;3.40;99159.00;;;;5007573;28;20612;-75
2021/12/10 01:48:11;;;;;;;10.33;5.63;;;;;3.40;99113.00;;;;5002520;28;20342;-75
2021/12/10 01:51:01;;;;;;;10.00;5.90;;;;;3.40;99109.00;;;;5001614;28;20341;-75
2021/12/10 01:53:50;;;;;;;11.73;6.53;;;;;3.50;99142.00;;;;5000557;28;20300;-73
2021/12/10 01:56:40;;;;;;;9.93;5.80;;;;;3.40;99142.00;;;;5006477;28;20253;-74
2021/12/10 01:59:28;;;;;;;10.80;5.47;;;;;3.40;99141.00;;;;5022175;28;20733;-75
2021/12/10 02:02:18;;;;;;;8.83;5.03;;;;;3.40;99146.00;;;;4981788;28;20606;-75
2021/12/10 02:05:07;;;;;;;8.50;5.53;;;;;3.40;99137.00;;;;4978852;28;20222;-75
2021/12/10 02:07:54;;;;;;;8.37;5.33;;;;;3.40;99149.00;;;;5000106;28;20225;-75
2021/12/10 02:10:41;;;;;;;12.13;6.57;;;;;3.50;99140.00;;;;5011000;28;20229;-75
2021/12/10 02:13:29;;;;;;;10.10;5.93;;;;;3.40;99131.00;;;;5012474;28;20893;-74
2021/12/10 02:16:16;;;;;;;9.53;6.03;;;;;3.60;99138.00;;;;4987824;28;20283;-75
2021/12/10 02:19:02;;;;;;;8.80;5.03;;;;;3.50;99119.00;;;;5000936;28;20254;-75
2021/12/10 02:21:50;;;;;;;12.70;6.63;;;;;3.50;99131.00;;;;4984224;28;20230;-75
2021/12/10 02:24:36;;;;;;;11.20;5.70;;;;;3.50;99117.00;;;;5007968;28;20226;-75
2021/12/10 02:27:24;;;;;;;12.37;6.37;;;;;3.50;99121.00;;;;5006227;28;20233;-75
2021/12/10 02:30:14;;;;;;;9.93;5.90;;;;;3.40;99109.00;;;;5014852;28;20237;-76
2021/12/10 02:33:01;;;;;;;9.67;6.30;;;;;3.50;99102.00;;;;4988485;28;20234;-77
2021/12/10 02:35:47;;;;;;;10.47;5.80;;;;;3.50;99104.00;;;;4979964;28;20238;-74
2021/12/10 02:38:35;;;;;;;12.43;6.47;;;;;3.50;99083.00;;;;5011060;28;20241;-75
2021/12/10 02:41:26;;;;;;;10.13;5.27;;;;;3.30;99095.00;;;;5016986;28;20274;-75
2021/12/10 02:44:18;;;;;;;8.60;5.60;;;;;3.20;99090.00;;;;5001832;28;20240;-75
2021/12/10 02:47:05;;;;;;;10.70;5.93;;;;;3.20;99086.00;;;;5003137;28;20256;-74
2021/12/10 02:49:52;;;;;;;10.53;5.27;;;;;3.20;99085.00;;;;5014198;28;20297;-74
2021/12/10 02:52:38;;;;;;;9.70;5.10;;;;;3.10;99086.00;;;;5008993;28;20330;-74
2021/12/10 02:55:26;;;;;;;7.33;4.87;;;;;3.10;99074.00;;;;5008790;28;20305;-75
2021/12/10 02:58:14;;;;;;;11.43;5.70;;;;;3.00;99053.00;;;;5007359;28;20237;-74
2021/12/10 03:01:04;;;;;;;11.07;5.87;;;;;3.00;99054.00;;;;4992366;28;20288;-74
2021/12/10 03:03:50;;;;;;;8.97;4.70;;;;;3.00;99053.00;;;;5000160;28;20923;-74
2021/12/10 03:06:42;;;;;;;9.47;5.60;;;;;2.90;99057.00;;;;5000989;28;20288;-74
2021/12/10 03:09:29;;;;;;;12.53;5.07;;;;;2.90;99044.00;;;;4992653;28;20241;-75
2021/12/10 03:12:19;;;;;;;10.57;5.37;;;;;2.90;99047.00;;;;4981798;28;20255;-75
2021/12/10 03:15:08;;;;;;;8.00;4.87;;;;;2.70;99038.00;;;;5001389;28;20880;-75
2021/12/10 03:17:58;;;;;;;10.27;4.83;;;;;2.80;99032.00;;;;5006827;28;20260;-73
2021/12/10 03:20:44;;;;;;;11.00;5.30;;;;;2.80;99031.00;;;;4983266;28;20301;-75
2021/12/10 03:23:30;;;;;;;8.67;4.40;;;;;2.70;99005.00;;;;5012974;28;20237;-74
2021/12/10 03:26:19;;;;;;;7.70;4.80;;;;;2.60;99018.00;;;;4992300;28;20244;-75
2021/12/10 03:29:07;;;;;;;9.33;4.80;;;;;2.60;99013.00;;;;5005144;28;20264;-75
2021/12/10 03:31:55;;;;;;;9.13;5.27;;;;;2.50;99010.00;;;;5002432;28;20711;-75
2021/12/10 03:34:42;;;;;;;8.13;4.77;;;;;2.40;99002.00;;;;4987044;28;20311;-74
2021/12/10 03:37:28;;;;;;;6.67;4.67;;;;;2.40;98995.00;;;;4986371;28;20374;-74
2021/12/10 03:40:17;;;;;;;9.23;4.67;;;;;2.40;98996.00;;;;4982993;28;20230;-74
2021/12/10 03:43:04;;;;;;;7.87;4.77;;;;;2.40;98990.00;;;;5010871;28;20306;-76
2021/12/10 03:45:54;;;;;;;8.57;5.27;;;;;2.40;98979.00;;;;5004071;28;20230;-74
2021/12/10 03:48:45;;;;;;;7.43;4.50;;;;;2.40;98967.00;;;;5018266;28;20237;-75
2021/12/10 03:51:34;;;;;;;7.57;4.90;;;;;2.40;98980.00;;;;5007495;28;20237;-74
2021/12/10 03:54:20;;;;;;;11.53;5.30;;;;;2.30;98951.00;;;;5009792;28;21048;-73
2021/12/10 03:57:07;;;;;;;7.77;4.90;;;;;2.40;98953.00;;;;4988314;28;20239;-73
2021/12/10 03:59:53;;;;;;;9.97;4.87;;;;;2.40;98957.00;;;;5007224;28;20300;-75
2021/12/10 04:02:41;;;;;;;9.20;4.50;;;;;2.30;98962.00;;;;5016879;28;20793;-74
2021/12/10 04:05:28;;;;;;;9.50;4.40;;;;;2.30;98951.00;;;;5007258;28;20302;-73
2021/12/10 04:08:15;;;;;;;9.67;4.83;;;;;2.20;98957.00;;;;5007163;28;20289;-74
2021/12/10 04:11:01;;;;;;;9.20;4.50;;;;;2.10;98948.00;;;;5012367;28;20383;-75
2021/12/10 04:13:51;;;;;;;6.83;4.20;;;;;2.00;98937.00;;;;5007068;28;20229;-74
2021/12/10 04:16:38;;;;;;;6.13;3.50;;;;;2.10;98941.00;;;;4995835;28;20278;-74
2021/12/10 04:19:30;;;;;;;7.57;4.33;;;;;2.00;98934.00;;;;4989420;28;20238;-75
2021/12/10 04:22:18;;;;;;;8.47;4.30;;;;;1.90;98943.00;;;;4985979;28;20933;-75
2021/12/10 04:25:08;;;;;;;8.73;4.40;;;;;2.00;98937.00;;;;5003569;28;20375;-76
2021/12/10 04:27:57;;;;;;;7.07;4.53;;;;;1.90;98938.00;;;;4986217;28;20234;-72
2021/12/10 04:30:45;;;;;;;6.90;4.20;;;;;2.00;98913.00;;;;4989084;28;24877;-75
2021/12/10 04:33:32;;;;;;;9.10;4.87;;;;;1.90;98930.00;;;;5011202;28;20230;-73
2021/12/10 04:36:20;;;;;;;6.43;4.13;;;;;1.80;98924.00;;;;5016014;28;20999;-73
2021/12/10 04:39:07;;;;;;;9.80;4.57;;;;;1.90;98913.00;;;;5014261;28;20365;-73
2021/12/10 04:41:54;;;;;;;11.33;4.40;;;;;1.90;98912.00;;;;5001651;28;20288;-75
2021/12/10 04:44:40;;;;;;;9.93;4.33;;;;;1.90;98908.00;;;;5010047;28;20954;-74
2021/12/10 04:47:28;;;;;;;9.00;4.67;;;;;1.90;98907.00;;;;5010134;28;20241;-73
2021/12/10 04:50:18;;;;;;;10.00;4.27;;;;;1.80;98900.00;;;;5016011;28;20229;-74
2021/12/10 04:53:10;;;;;;;9.13;4.47;;;;;1.90;98909.00;;;;5013836;28;20291;-75
2021/12/10 04:55:56;;;;;;;9.50;5.27;;;;;1.90;98902.00;;;;5002008;28;20306;-74
2021/12/10 04:58:43;;;;;;;10.30;5.37;;;;;1.90;98895.00;;;;4981771;28;20317;-75
2021/12/10 05:01:30;;;;;;;7.97;4.47;;;;;1.80;98895.00;;;;5005866;28;20759;-75
2021/12/10 05:04:18;;;;;;;15.67;4.63;;;;;1.80;98892.00;;;;5019933;28;20736;-76
2021/12/10 05:07:06;;;;;;;10.53;4.53;;;;;1.70;98885.00;;;;5003804;28;20685;-75
2021/12/10 05:09:54;;;;;;;9.07;4.10;;;;;1.80;98874.00;;;;4985995;28;20230;-74
2021/12/10 05:12:40;;;;;;;8.53;5.00;;;;;1.80;98875.00;;;;5013535;28;20221;-76
2021/12/10 05:15:31;;;;;;;9.43;4.60;;;;;1.70;98869.00;;;;5015543;28;20315;-76
2021/12/10 05:18:17;;;;;;;9.23;4.70;;;;;1.70;98853.00;;;;5019744;28;20245;-74
2021/12/10 05:21:12;;;;;;;8.33;4.70;;;;;1.70;98817.00;;;;5004013;28;20235;-74
2021/12/10 05:23:59;;;;;;;14.70;5.03;;;;;1.80;98853.00;;;;4984243;28;20370;-74
2021/12/10 05:26:48;;;;;;;9.40;4.67;;;;;1.80;98835.00;;;;4976648;28;20721;-72
2021/12/10 05:29:34;;;;;;;13.07;4.33;;;;;1.60;98859.00;;;;5013907;28;20241;-74
2021/12/10 05:32:20;;;;;;;6.70;4.20;;;;;1.60;98857.00;;;;5017631;28;20237;-73
2021/12/10 05:35:08;;;;;;;8.53;4.63;;;;;1.60;98857.00;;;;5008449;28;20736;-74
2021/12/10 05:37:55;;;;;;;8.23;4.80;;;;;1.60;98846.00;;;;5028874;28;20244;-73
2021/12/10 05:40:41;;;;;;;11.37;4.23;;;;;1.60;98840.00;;;;5009189;28;20249;-73
2021/12/10 05:43:29;;;;;;;7.37;4.00;;;;;1.50;98834.00;;;;5023295;28;20229;-74
2021/12/10 05:46:16;;;;;;;9.07;4.53;;;;;1.60;98826.00;;;;4992816;28;20225;-74
2021/12/10 05:49:03;;;;;;;10.40;3.97;;;;;1.60;98823.00;;;;5009638;28;20720;-74
2021/12/10 05:51:49;;;;;;;8.47;4.13;;;;;1.60;98812.00;;;;4982054;28;20311;-75
2021/12/10 05:54:35;;;;;;;10.17;3.97;;;;;1.50;98812.00;;;;5006514;28;20230;-73
2021/12/10 05:57:22;;;;;;;8.50;4.20;;;;;1.60;98806.00;;;;5009485;28;20238;-75
2021/12/10 06:00:14;;;;;;;8.17;4.00;;;;;1.50;98802.00;;;;5015627;28;20633;-74
2021/12/10 06:03:01;;;;;;;5.10;3.37;;;;;1.60;98787.00;;;;5010181;28;20297;-73
2021/12/10 06:05:48;;;;;;;8.03;4.10;;;;;1.60;98799.00;;;;4984662;28;20227;-73
2021/12/10 06:08:35;;;;;;;7.60;3.87;;;;;1.50;98785.00;;;;5013310;28;20566;-75
2021/12/10 06:11:23;;;;;;;7.43;3.43;;;;;1.60;98773.00;;;;5013650;28;20244;-74
2021/12/10 06:14:10;;;;;;;5.97;3.50;;;;;1.70;98771.00;;;;5010469;28;20237;-74
2021/12/10 06:16:57;;;;;;;8.23;3.60;;;;;1.50;98774.00;;;;5006405;28;20225;-74
2021/12/10 06:19:44;;;;;;;6.27;3.60;;;;;1.50;98767.00;;;;5018022;28;20281;-75
2021/12/10 06:22:32;;;;;;;11.30;4.17;;;;;1.50;98765.00;;;;4993996;28;20238;-74
2021/12/10 06:25:20;;;;;;;10.07;3.83;;;;;1.50;98710.00;;;;4986829;28;20234;-74
2021/12/10 06:28:07;;;;;;;8.53;3.43;;;;;1.60;98751.00;;;;5001573;28;20234;-74
2021/12/10 06:30:54;;;;;;;9.37;3.53;;;;;1.70;98753.00;;;;4999671;28;20226;-73
2021/12/10 06:33:42;;;;;;;11.70;3.80;;;;;1.60;98763.00;;;;5008428;28;20230;-75
2021/12/10 06:36:30;;;;;;;6.07;4.17;;;;;1.50;98755.00;;;;5010024;28;20242;-74
2021/12/10 06:39:20;;;;;;;9.67;4.20;;;;;1.60;98747.00;;;;4986539;28;20865;-74
2021/12/10 06:42:06;;;;;;;8.33;4.30;;;;;1.60;98759.00;;;;5001818;28;20230;-74
2021/12/10 06:45:19;;;;;;;6.53;3.90;;;;;1.60;98757.00;;;;5012546;28;20304;-74
2021/12/10 06:48:08;;;;;;;7.80;4.20;;;;;1.60;98743.00;;;;5010284;28;20357;-73
2021/12/10 06:50:59;;;;;;;8.97;4.30;;;;;1.60;98752.00;;;;4999872;28;20233;-74
2021/12/10 06:53:46;;;;;;;6.47;3.40;;;;;1.50;98748.00;;;;5018191;28;20245;-74
2021/12/10 06:56:35;;;;;;;5.53;2.97;;;;;1.40;98744.00;;;;4993960;28;20305;-73
2021/12/10 06:59:24;;;;;;;4.93;3.23;;;;;1.50;98742.00;;;;5018494;28;20445;-74
2021/12/10 07:02:11;;;;;;;5.40;3.00;;;;;1.40;98749.00;;;;5004752;28;20230;-75
2021/12/10 07:04:58;;;;;;;6.03;3.07;;;;;1.40;98743.00;;;;5008431;28;20234;-75
2021/12/10 07:07:46;;;;;;;6.47;3.10;;;;;1.40;98737.00;;;;4998417;28;20336;-75
2021/12/10 07:10:33;;;;;;;7.23;3.20;;;;;1.30;98732.00;;;;5014544;28;20599;-75
2021/12/10 07:13:20;;;;;;;7.00;3.00;;;;;1.20;98733.00;;;;5017778;28;20233;-75
2021/12/10 07:16:07;;;;;;;7.73;3.03;;;;;1.20;98735.00;;;;5012979;28;20271;-75
2021/12/10 07:18:56;;;;;;;9.30;3.50;;;;;1.20;98737.00;;;;4996423;28;20362;-75
2021/12/10 07:21:44;;;;;;;8.80;3.20;;;;;1.20;98735.00;;;;4973123;28;20231;-75
2021/12/10 07:24:31;;;;;;;6.53;3.70;;;;;1.20;98739.00;;;;4986869;28;20225;-74
2021/12/10 07:27:18;;;;;;;10.40;4.00;;;;;1.20;98732.00;;;;4983153;28;20934;-74
2021/12/10 07:30:07;;;;;;;10.23;4.10;;;;;1.30;98735.00;;;;4978079;28;20234;-75
2021/12/10 07:32:53;;;;;;;7.23;3.50;;;;;1.10;98730.00;;;;4997717;28;20237;-75
2021/12/10 07:35:39;;;;;;;9.73;3.63;;;;;1.20;98737.00;;;;5002553;28;20228;-76
2021/12/10 07:38:26;;;;;;;4.97;3.50;;;;;1.20;98730.00;;;;5007122;28;20735;-74
2021/12/10 07:41:14;;;;;;;5.23;3.57;;;;;1.10;98733.00;;;;5006550;28;20249;-75
2021/12/10 07:44:01;;;;;;;7.87;4.00;;;;;1.10;98727.00;;;;5003717;28;20310;-74
2021/12/10 07:46:48;;;;;;;5.67;3.07;;;;;1.20;98710.00;;;;4978618;28;20234;-74
2021/12/10 07:49:37;;;;;;;7.37;3.50;;;;;1.10;98736.00;;;;5010216;28;20230;-75
2021/12/10 07:52:27;;;;;;;6.87;3.60;;;;;1.20;98727.00;;;;5014446;28;20280;-74
2021/12/10 07:55:16;;;;;;;7.47;3.50;;;;;1.20;98706.00;;;;5015267;28;20233;-76
2021/12/10 07:58:06;;;;;;;9.30;3.67;;;;;1.20;98729.00;;;;5003360;28;20229;-74
2021/12/10 08:00:53;;;;;;;6.97;3.63;;;;;1.20;98734.00;;;;4993250;28;20239;-73
2021/12/10 08:03:39;;;;;;;10.47;3.33;;;;;1.30;98741.00;;;;4998065;28;20241;-74
2021/12/10 08:06:28;;;;;;;5.93;3.23;;;;;1.30;98727.00;;;;5008233;28;20357;-73
2021/12/10 08:09:15;;;;;;;8.47;3.30;;;;;1.30;98738.00;;;;4985832;28;20238;-73
2021/12/10 08:12:01;;;;;;;5.93;3.30;;;;;1.30;98742.00;;;;4983368;28;20230;-73
2021/12/10 08:14:52;;;;;;;10.50;3.83;;;;;1.40;98724.00;;;;4982175;28;20701;-73
2021/12/10 08:17:39;;;;;;;7.03;3.80;;;;;1.40;98739.00;;;;5010185;28;20717;-73
2021/12/10 08:20:27;;;;;;;12.13;3.43;;;;;1.40;98726.00;;;;5012115;28;20245;-72
2021/12/10 08:23:13;;;;;;;5.90;3.50;;;;;1.40;98734.00;;;;5016595;28;20237;-72
2021/12/10 08:26:00;;;;;;;6.10;3.10;;;;;1.40;98742.00;;;;5009962;28;20304;-72
2021/12/10 08:28:46;;;;;;;7.20;3.23;;;;;1.60;98722.00;;;;5000706;28;20308;-72
2021/12/10 08:31:34;;;;;;;5.00;3.00;;;;;1.60;98722.00;;;;5008534;28;20381;-72
2021/12/10 08:34:21;;;;;;;7.47;3.17;;;;;1.50;98727.00;;;;5001852;28;20234;-71
2021/12/10 08:37:08;;;;;;;5.50;3.13;;;;;1.60;98725.00;;;;5001947;28;20607;-72
2021/12/10 08:39:55;;;;;;;6.97;3.23;;;;;1.60;98724.00;;;;5002200;28;20300;-72
2021/12/10 08:42:41;;;;;;;6.10;3.10;;;;;1.60;98722.00;;;;5008125;28;20230;-71
2021/12/10 08:45:29;;;;;;;10.40;3.23;;;;;1.70;98719.00;;;;5005122;28;20329;-69
2021/12/10 08:48:16;;;;;;;7.87;3.97;;;;;1.90;98720.00;;;;5007609;28;20254;-74
2021/12/10 08:51:07;;;;;;;7.13;3.50;;;;;1.90;98714.00;;;;5002526;28;20697;-73
2021/12/10 08:53:54;;;;;;;8.50;4.47;;;;;2.00;98708.00;;;;5008147;28;20372;-73
2021/12/10 08:56:41;;;;;;;7.90;4.17;;;;;2.10;98703.00;;;;5007191;28;21049;-73
2021/12/10 08:59:28;;;;;;;10.77;4.37;;;;;2.20;98713.00;;;;5020116;28;20292;-73
2021/12/10 09:02:16;;;;;;;13.60;4.60;;;;;2.30;98709.00;;;;5010536;28;20788;-73
2021/12/10 09:05:05;;;;;;;11.17;4.67;;;;;2.30;98694.00;;;;5001770;28;20325;-72
2021/12/10 09:07:52;;;;;;;7.30;3.77;;;;;2.50;98721.00;;;;5003072;28;20244;-74
2021/12/10 09:10:41;;;;;;;6.47;4.27;;;;;2.50;98716.00;;;;5016945;28;20392;-73
2021/12/10 09:13:27;;;;;;;13.10;5.43;;;;;2.50;98712.00;;;;5008605;28;20238;-72
2021/12/10 09:16:20;;;;;;;8.80;3.83;;;;;2.70;98709.00;;;;5016965;28;20237;-72
2021/12/10 09:19:11;;;;;;;6.67;3.77;;;;;2.90;98715.00;;;;5003593;28;20234;-72
2021/12/10 09:22:00;;;;;;;9.90;4.47;;;;;2.80;98709.00;;;;5001808;28;20381;-72
2021/12/10 09:24:47;;;;;;;8.37;4.17;;;;;2.90;98711.00;;;;4980861;28;20274;-72
2021/12/10 09:27:34;;;;;;;11.13;4.30;;;;;3.00;98703.00;;;;4984157;28;20480;-72
2021/12/10 09:30:23;;;;;;;14.60;5.70;;;;;3.00;98706.00;;;;5014709;28;20236;-71
2021/12/10 09:33:10;;;;;;;12.03;5.17;;;;;3.10;98708.00;;;;5011512;28;20635;-72
2021/12/10 09:35:57;;;;;;;5.93;3.57;;;;;3.20;98712.00;;;;5000816;28;20238;-70
2021/12/10 09:38:45;;;;;;;5.50;3.80;;;;;3.30;98708.00;;;;4981171;28;20231;-72
2021/12/10 09:41:31;;;;;;;4.13;3.30;;;;;3.30;98708.00;;;;5015247;28;20292;-72
2021/12/10 09:44:18;;;;;;;8.73;3.67;;;;;3.30;98700.00;;;;5010856;28;20238;-72
2021/12/10 09:47:07;;;;;;;15.07;5.93;;;;;3.60;98704.00;;;;5009902;28;20234;-73
2021/12/10 09:49:56;;;;;;;17.20;8.27;;;;;3.60;98703.00;;;;4985520;28;20230;-74
2021/12/10 09:52:43;;;;;;;8.57;3.97;;;;;3.60;98701.00;;;;5022350;28;20269;-74
2021/12/10 09:55:30;;;;;;;11.53;3.90;;;;;3.70;98707.00;;;;5009130;28;20308;-73
2021/12/10 09:58:19;;;;;;;9.37;3.80;;;;;3.70;98703.00;;;;4986480;28;20313;-73
2021/12/10 10:01:08;;;;;;;7.13;3.50;;;;;3.90;98693.00;;;;5006590;28;20708;-73
2021/12/10 10:04:01;;;;;;;8.67;3.00;;;;;3.80;98689.00;;;;5003479;28;20227;-73
2021/12/10 10:06:52;;;;;;;8.47;3.20;;;;;3.90;98687.00;;;;4985598;28;20230;-75
2021/12/10 10:09:41;;;;;;;5.73;3.50;;;;;4.10;98695.00;;;;5008617;28;20579;-73
2021/12/10 10:12:32;;;;;;;11.17;3.50;;;;;4.10;98693.00;;;;4985373;28;20234;-74
2021/12/10 10:15:20;;;;;;;7.87;3.33;;;;;4.20;98686.00;;;;4987720;28;20233;-74
2021/12/10 10:18:12;;;;;;;6.27;3.40;;;;;4.30;98680.00;;;;5010193;28;20233;-74
2021/12/10 10:21:03;;;;;;;6.60;2.83;;;;;4.30;98680.00;;;;5000290;28;20245;-74
2021/12/10 10:23:50;;;;;;;7.13;3.00;;;;;4.50;98686.00;;;;4978962;28;20230;-73
2021/12/10 10:26:41;;;;;;;9.37;3.43;;;;;4.40;98686.00;;;;5013838;28;20285;-74
2021/12/10 10:29:33;;;;;;;8.50;3.10;;;;;4.40;98680.00;;;;5006098;28;20233;-74
2021/12/10 10:32:26;;;;;;;6.80;3.33;;;;;4.50;98673.00;;;;5006351;28;20233;-74
2021/12/10 10:35:17;;;;;;;5.37;3.23;;;;;4.50;98659.00;;;;5002265;28;20595;-73
2021/12/10 10:38:10;;;;;;;6.07;3.03;;;;;4.50;98656.00;;;;5000981;28;20846;-74
2021/12/10 10:40:59;;;;;;;5.57;2.97;;;;;4.70;98677.00;;;;4971217;28;20238;-74
2021/12/10 10:43:46;;;;;;;6.27;3.50;;;;;4.80;98666.00;;;;4979299;28;20238;-73
2021/12/10 10:46:35;;;;;;;6.97;3.10;;;;;5.00;98677.00;;;;5003004;28;20222;-73
2021/12/10 10:49:33;;;;;;;8.37;3.37;;;;;4.90;98673.00;;;;4994148;28;20608;-73
2021/12/10 10:52:28;;;;;;;9.00;3.30;;;;;5.10;98664.00;;;;4991354;28;20711;-74
2021/12/10 10:55:20;;;;;;;6.97;3.07;;;;;5.20;98664.00;;;;4995806;28;20235;-73
2021/12/10 10:58:10;;;;;;;5.97;3.20;;;;;5.10;98648.00;;;;4992173;28;20843;-71
2021/12/10 11:01:02;;;;;;;10.20;3.37;;;;;5.10;98669.00;;;;4983094;28;20238;-74
2021/12/10 11:04:17;;;;;;;8.40;3.70;;;;;5.10;98666.00;;;;4997017;28;20250;-74
2021/12/10 11:07:07;;;;;;;5.80;3.10;;;;;5.00;98674.00;;;;4992765;28;20225;-74
2021/12/10 11:09:56;;;;;;;9.77;3.53;;;;;5.10;98677.00;;;;4983213;28;20247;-73
2021/12/10 11:12:43;;;;;;;9.90;3.83;;;;;5.20;98671.00;;;;4991924;28;20233;-74
2021/12/10 11:15:29;;;;;;;15.73;6.93;;;;;5.00;98676.00;;;;4982424;28;20239;-74
2021/12/10 11:18:16;;;;;;;11.73;6.57;;;;;5.20;98669.00;;;;4992173;28;20253;-74
2021/12/10 11:21:04;;;;;;;8.87;4.23;;;;;5.40;98665.00;;;;4988862;28;20246;-74
2021/12/10 11:23:50;;;;;;;13.40;3.87;;;;;5.40;98664.00;;;;4990307;28;20230;-74
2021/12/10 11:26:48;;;;;;;11.07;4.03;;;;;5.30;98662.00;;;;4995617;28;20241;-74
2021/12/10 11:29:45;;;;;;;6.60;4.50;;;;;5.40;98667.00;;;;4999069;28;20237;-71
2021/12/10 11:32:39;;;;;;;11.40;3.40;;;;;5.50;98667.00;;;;4997290;28;20245;-74
2021/12/10 11:35:29;;;;;;;8.60;3.00;;;;;5.60;98660.00;;;;5006761;28;20237;-73
2021/12/10 11:38:20;;;;;;;4.87;2.73;;;;;5.60;98656.00;;;;5002340;28;20366;-74
2021/12/10 11:41:09;;;;;;;7.03;3.10;;;;;5.60;98655.00;;;;5002823;28;20233;-74
2021/12/10 11:44:18;;;;;;;14.33;3.97;;;;;5.70;98654.00;;;;4999747;28;20253;-72
2021/12/10 11:47:25;;;;;;;12.33;4.47;;;;;5.80;98650.00;;;;5001460;28;20225;-74
2021/12/10 11:50:21;;;;;;;17.47;6.10;;;;;5.90;98651.00;;;;5006280;28;20249;-74
2021/12/10 11:53:12;;;;;;;6.80;3.30;;;;;5.90;98633.00;;;;4987631;28;20230;-75
2021/12/10 11:56:04;;;;;;;6.00;2.90;;;;;6.00;98652.00;;;;4988779;28;20362;-74
2021/12/10 11:59:05;;;;;;;10.47;2.70;;;;;5.80;98650.00;;;;4985552;28;20242;-73
2021/12/10 12:01:55;;;;;;;7.80;3.20;;;;;5.80;98646.00;;;;4992880;28;20246;-72
2021/12/10 12:04:45;;;;;;;7.93;3.13;;;;;5.80;98649.00;;;;4993425;28;20258;-70
2021/12/10 12:07:35;;;;;;;11.03;5.23;;;;;5.70;98641.00;;;;4992099;28;20237;-72
2021/12/10 12:10:26;;;;;;;9.93;4.60;;;;;5.70;98651.00;;;;4990125;28;20382;-71
2021/12/10 12:13:26;;;;;;;11.77;4.47;;;;;5.70;98652.00;;;;4981488;28;20230;-70
2021/12/10 12:16:16;;;;;;;9.17;4.63;;;;;5.70;98639.00;;;;5011436;28;20253;-71
2021/12/10 12:19:05;;;;;;;8.87;4.37;;;;;5.70;98645.00;;;;4997969;28;20253;-71
2021/12/10 12:25:09;;;;;;;10.17;3.70;;;;;5.70;98647.00;;;;4999762;28;20307;-72
2021/12/10 12:28:09;;;;;;;6.70;3.20;;;;;5.70;98654.00;;;;5013461;28;20229;-73
2021/12/10 12:31:19;;;;;;;6.80;3.00;;;;;5.80;98659.00;;;;5001659;28;20309;-72
2021/12/10 12:34:09;;;;;;;6.67;2.83;;;;;5.80;98657.00;;;;5010121;28;20864;-72
2021/12/10 12:37:00;;;;;;;4.20;3.10;;;;;5.80;98653.00;;;;5008615;28;20269;-74
2021/12/10 12:40:08;;;;;;;4.17;2.87;;;;;5.90;98641.00;;;;5003220;28;20238;-72
2021/12/10 12:43:04;;;;;;;7.90;3.00;;;;;6.10;98667.00;;;;5014019;28;20632;-69
2021/12/10 12:45:51;;;;;;;7.13;2.50;;;;;6.00;98669.00;;;;4999263;28;20644;-71
2021/12/10 12:48:59;;;;;;;5.07;2.53;;;;;6.00;98659.00;;;;4984966;28;20753;-72
2021/12/10 12:52:04;;;;;;;7.40;2.70;;;;;6.00;98657.00;;;;4984855;28;20371;-72
2021/12/10 12:55:16;;;;;;;4.90;2.50;;;;;6.20;98661.00;;;;5005925;28;20246;-70
2021/12/10 12:58:16;;;;;;;4.77;2.43;;;;;6.00;98659.00;;;;5001370;28;20241;-73
2021/12/10 13:01:27;;;;;;;4.47;2.63;;;;;6.00;98666.00;;;;5008442;28;20245;-72
2021/12/10 13:04:19;;;;;;;4.73;2.43;;;;;6.00;98670.00;;;;5013949;28;20233;-72
2021/12/10 13:07:29;;;;;;;5.30;2.03;;;;;5.90;98674.00;;;;5010675;28;20246;-74
2021/12/10 13:10:20;;;;;;;6.83;2.70;;;;;5.80;98663.00;;;;5014474;28;20251;-73
2021/12/10 13:13:12;;;;;;;6.10;2.60;;;;;5.80;98675.00;;;;5003938;28;20224;-73
2021/12/10 13:15:59;;;;;;;3.63;2.60;;;;;5.90;98672.00;;;;4986411;28;20235;-71
2021/12/10 13:18:45;;;;;;;6.80;2.53;;;;;5.80;98687.00;;;;4980036;28;20241;-72
2021/12/10 13:21:33;;;;;;;7.83;2.80;;;;;5.80;98688.00;;;;5021631;28;20735;-73
2021/12/10 13:24:20;;;;;;;8.17;3.33;;;;;6.10;98698.00;;;;4992377;28;20230;-74
2021/12/10 13:27:08;;;;;;;9.63;4.43;;;;;6.00;98685.00;;;;4985863;28;20402;-72
2021/12/10 13:29:54;;;;;;;27.20;11.20;;;;;6.10;98690.00;;;;5000966;28;20276;-72
2021/12/10 13:32:41;;;;;;;24.27;9.40;;;;;5.80;98687.00;;;;4992489;28;20607;-73
2021/12/10 13:35:30;;;;;;;30.23;11.63;;;;;5.90;98693.00;;;;5015621;28;20643;-70
2021/12/10 13:38:20;;;;;;;11.07;4.60;;;;;5.80;98700.00;;;;4988593;28;20318;-72
2021/12/10 13:41:09;;;;;;;9.77;3.60;;;;;5.90;98708.00;;;;4982098;28;20230;-72
2021/12/10 13:44:02;;;;;;;8.30;3.50;;;;;5.90;98705.00;;;;5001189;28;20226;-72
2021/12/10 13:46:51;;;;;;;5.53;3.10;;;;;6.10;98705.00;;;;4989762;28;20246;-72
2021/12/10 13:49:50;;;;;;;4.73;2.50;;;;;5.90;98704.00;;;;5018986;28;20353;-72
2021/12/10 13:52:41;;;;;;;2.60;2.23;;;;;6.00;98705.00;;;;5008526;28;20816;-73
2021/12/10 13:55:33;;;;;;;4.83;2.80;;;;;5.90;98718.00;;;;4987543;28;20464;-73
2021/12/10 13:58:33;;;;;;;5.87;2.57;;;;;5.80;98731.00;;;;4987707;28;20247;-71
2021/12/10 14:01:21;;;;;;;5.40;2.57;;;;;5.80;98739.00;;;;5013798;28;20248;-72
2021/12/10 14:04:11;;;;;;;5.53;2.60;;;;;5.90;98733.00;;;;4997448;28;20369;-74
2021/12/10 14:06:59;;;;;;;4.30;2.20;;;;;5.90;98739.00;;;;5009495;28;20233;-75
2021/12/10 14:09:50;;;;;;;7.30;2.33;;;;;5.80;98732.00;;;;5005819;28;20257;-75
2021/12/10 14:12:45;;;;;;;6.00;2.63;;;;;5.60;98738.00;;;;5013801;28;20621;-75
2021/12/10 14:15:40;;;;;;;26.23;9.67;;;;;5.70;98746.00;;;;4999856;28;20238;-75
2021/12/10 14:18:47;;;;;;;30.47;9.07;;;;;5.60;98763.00;;;;5006188;28;20242;-75
2021/12/10 14:21:53;;;;;;;20.73;7.00;;;;;5.50;98756.00;;;;5002551;28;20380;-74
2021/12/10 14:24:59;;;;;;;5.57;3.50;;;;;5.60;98759.00;;;;5007095;28;20711;-74
2021/12/10 14:28:10;;;;;;;9.00;4.00;;;;;5.50;98766.00;;;;5001589;28;20233;-74